createdAt,value
2018-08-12T00:00:39.159Z,46.36
2018-08-12T00:03:08.999Z,45.50
2018-08-12T00:05:38.841Z,46.46
2018-08-12T00:08:08.575Z,47.31
2018-08-12T00:10:38.322Z,47.08
2018-08-12T00:13:08.185Z,46.42
2018-08-12T00:15:38.295Z,46.36
2018-08-12T00:18:08.204Z,45.94
2018-08-12T00:20:37.900Z,48.03
2018-08-12T00:23:07.634Z,46.42
2018-08-12T00:25:37.296Z,47.93
2018-08-12T00:28:07.194Z,46.39
2018-08-12T00:30:36.873Z,45.24
2018-08-12T00:33:06.640Z,46.82
2018-08-12T00:35:36.332Z,45.59
2018-08-12T00:38:06.133Z,47.66
2018-08-12T00:40:35.987Z,48.01
2018-08-12T00:43:05.871Z,48.11
2018-08-12T00:45:35.700Z,47.79
2018-08-12T00:48:05.657Z,47.93
2018-08-12T00:50:35.391Z,48.46
2018-08-12T00:53:05.188Z,47.85
2018-08-12T00:55:35.018Z,49.95
2018-08-12T00:58:05.001Z,48.90
2018-08-12T01:00:34.737Z,48.73
2018-08-12T01:03:04.771Z,47.93
2018-08-12T01:05:34.640Z,50.36
2018-08-12T01:08:05.240Z,50.56
2018-08-12T01:10:35.849Z,48.67
2018-08-12T01:13:06.211Z,48.72
2018-08-12T01:15:36.603Z,49.96
2018-08-12T01:18:07.366Z,49.47
2018-08-12T01:20:38.173Z,50.50
2018-08-12T01:23:08.783Z,49.86
2018-08-12T01:25:39.435Z,48.90
2018-08-12T01:28:09.403Z,49.50
2018-08-12T01:30:39.965Z,49.25
2018-08-12T01:33:09.644Z,49.48
2018-08-12T01:35:39.336Z,49.92
2018-08-12T01:38:09.085Z,49.59
2018-08-12T01:40:38.922Z,48.83
2018-08-12T01:43:08.606Z,48.03
2018-08-12T01:45:38.472Z,47.94
2018-08-12T01:48:08.616Z,50.52
2018-08-12T01:50:38.314Z,50.06
2018-08-12T01:53:08.045Z,50.25
2018-08-12T01:55:37.815Z,50.05
2018-08-12T01:58:07.668Z,51.04
2018-08-12T02:00:37.512Z,49.07
2018-08-12T02:03:07.804Z,49.64
2018-08-12T02:05:37.528Z,49.12
2018-08-12T02:08:07.408Z,48.67
2018-08-12T02:10:37.176Z,48.72
2018-08-12T02:13:06.808Z,49.84
2018-08-12T02:15:36.600Z,47.71
2018-08-12T02:18:06.362Z,48.01
2018-08-12T02:20:36.279Z,48.79
2018-08-12T02:23:06.061Z,50.11
2018-08-12T02:25:35.798Z,51.82
2018-08-12T02:28:05.654Z,51.39
2018-08-12T02:30:35.466Z,51.10
2018-08-12T02:33:05.360Z,50.89
2018-08-12T02:35:35.139Z,50.16
2018-08-12T02:38:04.920Z,48.25
2018-08-12T02:40:35.007Z,48.54
2018-08-12T02:43:05.211Z,47.73
2018-08-12T02:45:35.632Z,47.41
2018-08-12T02:48:06.308Z,48.07
2018-08-12T02:50:37.407Z,48.40
2018-08-12T02:53:08.145Z,50.64
2018-08-12T02:55:38.568Z,50.08
2018-08-12T02:58:09.400Z,50.51
2018-08-12T03:00:39.754Z,51.61
2018-08-12T03:03:10.537Z,51.49
2018-08-12T03:05:41.052Z,51.65
2018-08-12T03:08:11.464Z,52.61
2018-08-12T03:10:42.848Z,52.00
2018-08-12T03:13:13.389Z,52.02
2018-08-12T03:15:43.122Z,49.73
2018-08-12T03:18:12.974Z,48.23
2018-08-12T03:20:43.772Z,50.97
2018-08-12T03:23:13.602Z,49.67
2018-08-12T03:25:43.376Z,48.77
2018-08-12T03:28:13.120Z,48.01
2018-08-12T03:30:42.919Z,48.25
2018-08-12T03:33:12.620Z,49.83
2018-08-12T03:35:42.424Z,49.76
2018-08-12T03:38:12.281Z,49.57
2018-08-12T03:40:42.219Z,52.80
2018-08-12T03:43:11.985Z,53.76
2018-08-12T03:45:41.717Z,53.22
2018-08-12T03:48:11.344Z,51.68
2018-08-12T03:50:41.047Z,52.10
2018-08-12T03:53:10.684Z,53.87
2018-08-12T03:55:40.541Z,53.70
2018-08-12T03:58:10.264Z,52.43
2018-08-12T04:00:40.065Z,50.47
2018-08-12T04:03:09.871Z,50.38
2018-08-12T04:05:39.705Z,50.43
2018-08-12T04:08:09.592Z,52.00
2018-08-12T04:10:39.357Z,53.38
2018-08-12T04:13:09.148Z,52.71
2018-08-12T04:15:38.855Z,53.22
2018-08-12T04:18:09.396Z,53.37
2018-08-12T04:20:39.093Z,52.92
2018-08-12T04:23:09.557Z,51.79
2018-08-12T04:25:40.048Z,52.87
2018-08-12T04:28:10.283Z,53.61
2018-08-12T04:30:41.528Z,54.50
2018-08-12T04:33:12.290Z,54.00
2018-08-12T04:35:43.244Z,55.20
2018-08-12T04:38:13.741Z,50.85
2018-08-12T04:40:44.517Z,50.87
2018-08-12T04:43:14.846Z,48.79
2018-08-12T04:45:45.375Z,49.64
2018-08-12T04:48:15.807Z,49.90
2018-08-12T04:50:46.072Z,49.56
2018-08-12T04:53:16.623Z,48.46
2018-08-12T04:55:47.133Z,48.75
2018-08-12T04:58:17.574Z,46.62
2018-08-12T05:00:48.941Z,47.25
2018-08-12T05:03:19.631Z,46.71
2018-08-12T05:05:49.999Z,44.06
2018-08-12T05:08:20.461Z,47.22
2018-08-12T05:10:52.149Z,43.44
2018-08-12T05:13:22.672Z,46.64
2018-08-12T05:15:53.278Z,49.87
2018-08-12T05:18:23.893Z,49.49
2018-08-12T05:20:54.984Z,48.56
2018-08-12T05:23:25.989Z,48.66
2018-08-12T05:25:56.521Z,46.39
2018-08-12T05:28:27.167Z,46.86
2018-08-12T05:30:57.766Z,47.97
2018-08-12T05:33:28.391Z,48.89
2018-08-12T05:35:58.901Z,49.25
2018-08-12T05:38:29.628Z,48.61
2018-08-12T05:41:00.216Z,47.07
2018-08-12T05:43:30.473Z,46.53
2018-08-12T05:46:01.223Z,46.85
2018-08-12T05:48:31.002Z,46.34
2018-08-12T05:51:01.061Z,46.97
2018-08-12T05:53:30.973Z,46.40
2018-08-12T05:56:00.760Z,46.43
2018-08-12T05:58:30.389Z,46.16
2018-08-12T06:01:00.141Z,47.03
2018-08-12T06:03:30.085Z,48.69
2018-08-12T06:05:59.774Z,47.91
2018-08-12T06:08:29.424Z,46.44
2018-08-12T06:10:59.248Z,46.08
2018-08-12T06:13:28.892Z,46.07
2018-08-12T06:15:58.671Z,45.35
2018-08-12T06:18:28.738Z,43.73
2018-08-12T06:20:58.640Z,42.30
2018-08-12T06:23:28.766Z,41.97
2018-08-12T06:25:58.534Z,41.42
2018-08-12T06:28:28.261Z,41.09
2018-08-12T06:30:58.495Z,40.33
2018-08-12T06:33:28.230Z,39.86
2018-08-12T06:35:57.957Z,38.29
2018-08-12T06:41:44.746Z,37.84
2018-08-12T06:44:14.658Z,38.06
2018-08-12T06:46:44.517Z,37.38
2018-08-12T06:49:14.192Z,38.21
2018-08-12T06:51:44.146Z,36.54
2018-08-12T06:54:14.023Z,36.56
2018-08-12T06:56:43.852Z,35.73
2018-08-12T06:59:13.577Z,35.23
2018-08-12T07:01:43.374Z,35.49
2018-08-12T07:04:13.264Z,34.93
2018-08-12T07:06:42.938Z,34.31
2018-08-12T07:09:13.018Z,34.83
2018-08-12T07:11:42.954Z,33.62
2018-08-12T07:14:12.815Z,33.51
2018-08-12T07:16:42.692Z,31.78
2018-08-12T07:19:12.412Z,30.83
2018-08-12T07:21:42.233Z,31.90
2018-08-12T07:24:12.307Z,31.74
2018-08-12T07:26:42.282Z,30.55
2018-08-12T07:29:12.127Z,30.71
2018-08-12T07:31:41.880Z,31.30
2018-08-12T07:34:11.607Z,29.39
2018-08-12T07:36:41.346Z,30.36
2018-08-12T07:39:11.620Z,29.84
2018-08-12T07:41:41.378Z,31.25
2018-08-12T07:44:11.188Z,30.70
2018-08-12T07:46:40.983Z,33.80
2018-08-12T07:49:10.745Z,33.80
2018-08-12T07:51:40.496Z,32.63
2018-08-12T07:54:10.389Z,32.32
2018-08-12T07:56:40.188Z,33.30
2018-08-12T07:59:10.065Z,33.76
2018-08-12T08:01:39.849Z,33.51
2018-08-12T08:04:09.599Z,33.37
2018-08-12T08:06:39.357Z,31.67
2018-08-12T08:09:11.670Z,29.58
2018-08-12T08:11:42.144Z,29.63
2018-08-12T08:14:12.045Z,28.66
2018-08-12T08:16:41.888Z,26.99
2018-08-12T08:19:12.408Z,28.25
2018-08-12T08:21:42.221Z,29.07
2018-08-12T08:24:12.001Z,28.62
2018-08-12T08:26:42.057Z,28.88
2018-08-12T08:29:12.078Z,27.71
2018-08-12T08:31:42.127Z,27.34
2018-08-12T08:34:11.799Z,25.59
2018-08-12T08:36:41.611Z,25.20
2018-08-12T08:39:14.305Z,25.69
2018-08-12T08:41:44.480Z,25.29
2018-08-12T08:44:14.431Z,24.89
2018-08-12T08:46:44.284Z,24.25
2018-08-12T08:49:14.911Z,24.01
2018-08-12T08:51:44.562Z,23.21
2018-08-12T08:54:14.213Z,23.05
2018-08-12T08:56:44.051Z,23.33
2018-08-12T08:59:13.680Z,23.45
2018-08-12T09:01:43.580Z,21.75
2018-08-12T09:04:13.877Z,21.41
2018-08-12T09:06:44.867Z,21.04
2018-08-12T09:09:17.059Z,20.74
2018-08-12T09:11:47.777Z,21.47
2018-08-12T09:14:18.072Z,20.76
2018-08-12T09:16:48.272Z,20.72
2018-08-12T09:19:19.252Z,20.12
2018-08-12T09:21:50.046Z,19.60
2018-08-12T09:24:20.502Z,18.71
2018-08-12T09:26:51.295Z,19.05
2018-08-12T09:29:22.743Z,19.95
2018-08-12T09:31:53.127Z,20.14
2018-08-12T09:34:22.822Z,19.26
2018-08-12T09:36:52.510Z,19.11
2018-08-12T09:39:23.249Z,18.63
2018-08-12T09:41:52.843Z,19.23
2018-08-12T09:44:22.642Z,18.90
2018-08-12T09:46:52.473Z,19.05
2018-08-12T09:49:22.212Z,18.89
2018-08-12T09:51:52.172Z,19.35
2018-08-12T09:54:21.627Z,18.96
2018-08-12T09:56:51.431Z,18.87
2018-08-12T09:59:21.053Z,18.64
2018-08-12T10:01:50.809Z,18.79
2018-08-12T10:04:20.669Z,18.57
2018-08-12T10:06:50.509Z,17.80
2018-08-12T10:09:20.311Z,16.64
2018-08-12T10:11:50.287Z,16.14
2018-08-12T10:14:19.961Z,15.75
2018-08-12T10:16:49.776Z,15.97
2018-08-12T10:19:19.632Z,16.43
2018-08-12T10:21:49.523Z,16.67
2018-08-12T10:24:19.835Z,16.70
2018-08-12T10:26:49.455Z,16.28
2018-08-12T10:29:19.530Z,16.01
2018-08-12T10:31:49.342Z,16.33
2018-08-12T10:34:19.123Z,15.54
2018-08-12T10:36:48.900Z,16.38
2018-08-12T10:39:18.715Z,17.14
2018-08-12T10:41:48.600Z,16.60
2018-08-12T10:44:18.452Z,17.25
2018-08-12T10:46:48.220Z,17.18
2018-08-12T10:49:18.115Z,16.11
2018-08-12T10:51:47.879Z,16.03
2018-08-12T10:54:17.660Z,14.89
2018-08-12T10:56:47.997Z,13.88
2018-08-12T10:59:18.519Z,16.72
2018-08-12T11:01:48.468Z,16.42
2018-08-12T11:04:18.273Z,16.37
2018-08-12T11:06:50.235Z,15.75
2018-08-12T11:09:21.588Z,14.89
2018-08-12T11:11:51.432Z,15.66
2018-08-12T11:14:21.220Z,15.10
2018-08-12T11:16:50.913Z,15.65
2018-08-12T11:19:21.065Z,15.25
2018-08-12T11:21:50.930Z,14.20
2018-08-12T11:24:20.818Z,13.35
2018-08-12T11:26:50.577Z,13.31
2018-08-12T11:29:20.410Z,14.15
2018-08-12T11:31:50.845Z,15.20
2018-08-12T11:34:20.736Z,13.50
2018-08-12T11:36:50.457Z,13.65
2018-08-12T11:39:20.250Z,12.99
2018-08-12T11:41:49.927Z,12.69
2018-08-12T11:44:19.819Z,13.31
2018-08-12T11:46:49.713Z,13.57
2018-08-12T11:49:19.653Z,13.42
2018-08-12T11:51:49.408Z,12.38
2018-08-12T11:54:19.455Z,12.73
2018-08-12T11:56:49.249Z,12.85
2018-08-12T11:59:18.964Z,12.76
2018-08-12T12:01:48.760Z,11.64
2018-08-12T12:04:18.561Z,11.71
2018-08-12T12:06:48.301Z,12.71
2018-08-12T12:09:18.130Z,13.61
2018-08-12T12:11:48.026Z,13.42
2018-08-12T12:14:17.807Z,12.46
2018-08-12T12:16:47.514Z,12.50
2018-08-12T12:19:17.196Z,13.10
2018-08-12T12:21:46.901Z,13.69
2018-08-12T12:24:16.467Z,13.17
2018-08-12T12:26:46.220Z,12.46
2018-08-12T12:29:16.015Z,12.89
2018-08-12T12:31:45.745Z,13.00
2018-08-12T12:34:16.328Z,13.81
2018-08-12T12:36:46.115Z,12.23
2018-08-12T12:39:15.817Z,11.97
2018-08-12T12:41:45.632Z,10.99
2018-08-12T12:44:15.465Z,11.84
2018-08-12T12:46:45.382Z,12.32
2018-08-12T12:49:15.273Z,12.76
2018-08-12T12:51:45.097Z,12.57
2018-08-12T12:54:14.901Z,12.62
2018-08-12T12:56:44.813Z,11.24
2018-08-12T12:59:14.614Z,12.03
2018-08-12T13:01:44.989Z,13.04
2018-08-12T13:04:15.424Z,13.73
2018-08-12T13:06:45.229Z,12.29
2018-08-12T13:09:15.508Z,11.14
2018-08-12T13:11:45.231Z,12.69
2018-08-12T13:14:15.035Z,14.01
2018-08-12T13:16:44.896Z,12.10
2018-08-12T13:19:14.831Z,13.15
2018-08-12T13:21:44.771Z,12.98
2018-08-12T13:24:14.633Z,13.56
2018-08-12T13:26:44.467Z,13.84
2018-08-12T13:29:14.334Z,13.43
2018-08-12T13:31:44.023Z,14.39
2018-08-12T13:34:13.581Z,14.38
2018-08-12T13:36:43.398Z,14.12
2018-08-12T13:39:14.363Z,15.12
2018-08-12T13:41:44.130Z,14.85
2018-08-12T13:44:13.843Z,15.05
2018-08-12T13:46:43.683Z,14.25
2018-08-12T13:49:14.757Z,13.95
2018-08-12T13:51:45.325Z,14.75
2018-08-12T13:54:15.746Z,14.53
2018-08-12T13:56:46.481Z,14.46
2018-08-12T13:59:17.945Z,13.43
2018-08-12T14:01:48.337Z,14.57
2018-08-12T14:04:18.799Z,14.58
2018-08-12T14:06:49.020Z,15.60
2018-08-12T14:09:19.704Z,14.16
2018-08-12T14:11:50.117Z,14.90
2018-08-12T14:14:20.854Z,15.19
2018-08-12T14:16:51.137Z,16.77
2018-08-12T14:19:21.971Z,16.49
2018-08-12T14:21:51.733Z,16.74
2018-08-12T14:24:21.545Z,16.61
2018-08-12T14:26:51.377Z,15.74
2018-08-12T14:29:22.022Z,16.78
2018-08-12T14:31:51.724Z,17.91
2018-08-12T14:34:21.464Z,16.97
2018-08-12T14:36:51.511Z,17.64
2018-08-12T14:39:21.382Z,17.66
2018-08-12T14:41:51.096Z,18.34
2018-08-12T14:44:20.859Z,18.47
2018-08-12T14:46:50.635Z,19.52
2018-08-12T14:49:20.384Z,19.52
2018-08-12T14:51:50.203Z,19.34
2018-08-12T14:54:20.031Z,20.00
2018-08-12T14:56:49.945Z,19.66
2018-08-12T14:59:19.728Z,18.92
2018-08-12T15:01:49.499Z,19.60
2018-08-12T15:04:19.322Z,19.27
2018-08-12T15:06:49.137Z,19.52
2018-08-12T15:09:18.848Z,20.52
2018-08-12T15:11:48.714Z,21.18
2018-08-12T15:14:18.518Z,20.33
2018-08-12T15:16:48.413Z,20.11
2018-08-12T15:19:18.299Z,19.62
2018-08-12T15:21:48.126Z,21.26
2018-08-12T15:24:18.033Z,21.39
2018-08-12T15:26:48.059Z,22.82
2018-08-12T15:29:17.924Z,23.92
2018-08-12T15:31:47.821Z,23.76
2018-08-12T15:34:17.718Z,23.54
2018-08-12T15:36:48.391Z,24.38
2018-08-12T15:39:19.165Z,25.92
2018-08-12T15:41:48.974Z,26.05
2018-08-12T15:44:18.785Z,25.67
2018-08-12T15:49:17.224Z,25.34
2018-08-12T15:51:47.041Z,25.86
2018-08-12T15:54:16.865Z,26.32
2018-08-12T15:56:46.969Z,26.21
2018-08-12T15:59:16.896Z,26.63
2018-08-12T16:01:46.660Z,26.40
2018-08-12T16:04:16.512Z,25.93
2018-08-12T16:06:46.563Z,27.44
2018-08-12T16:09:16.305Z,27.34
2018-08-12T16:11:46.150Z,28.27
2018-08-12T16:14:15.944Z,28.93
2018-08-12T16:16:45.642Z,28.08
2018-08-12T16:19:16.175Z,28.23
2018-08-12T16:21:45.872Z,27.30
2018-08-12T16:24:15.895Z,28.77
2018-08-12T16:26:45.657Z,29.29
2018-08-12T16:29:15.477Z,29.42
2018-08-12T16:31:45.238Z,28.97
2018-08-12T16:34:14.968Z,28.93
2018-08-12T16:36:44.657Z,29.71
2018-08-12T16:39:14.569Z,28.57
2018-08-12T16:41:44.480Z,29.92
2018-08-12T16:44:14.375Z,29.03
2018-08-12T16:46:44.234Z,28.97
2018-08-12T16:49:13.988Z,28.41
2018-08-12T16:51:43.788Z,28.97
2018-08-12T16:54:13.515Z,29.63
2018-08-12T16:56:43.343Z,31.66
2018-08-12T16:59:13.194Z,32.54
2018-08-12T17:01:42.878Z,32.75
2018-08-12T17:04:12.582Z,33.38
2018-08-12T17:06:42.390Z,33.44
2018-08-12T17:09:13.263Z,33.82
2018-08-12T17:11:43.123Z,32.88
2018-08-12T17:14:12.866Z,34.30
2018-08-12T17:16:42.763Z,35.66
2018-08-12T17:19:13.819Z,36.54
2018-08-12T17:21:43.609Z,37.41
2018-08-12T17:24:13.337Z,38.48
2018-08-12T17:26:43.131Z,38.49
2018-08-12T17:29:14.352Z,38.16
2018-08-12T17:31:44.565Z,39.17
2018-08-12T17:34:14.373Z,37.92
2018-08-12T17:36:44.352Z,38.87
2018-08-12T17:39:14.344Z,39.30
2018-08-12T17:41:44.085Z,38.83
2018-08-12T17:44:14.315Z,39.01
2018-08-12T17:46:44.021Z,37.64
2018-08-12T17:49:13.915Z,40.03
2018-08-12T17:51:43.641Z,38.70
2018-08-12T17:54:13.349Z,37.96
2018-08-12T17:56:43.153Z,36.92
2018-08-12T17:59:12.930Z,37.48
2018-08-12T18:01:42.855Z,37.23
2018-08-12T18:04:12.653Z,37.80
2018-08-12T18:06:42.473Z,37.22
2018-08-12T18:09:12.823Z,37.65
2018-08-12T18:11:42.520Z,39.04
2018-08-12T18:14:12.182Z,38.14
2018-08-12T18:16:42.009Z,37.85
2018-08-12T18:19:11.905Z,38.75
2018-08-12T18:21:41.558Z,38.90
2018-08-12T18:24:11.799Z,38.79
2018-08-12T18:26:42.349Z,38.45
2018-08-12T18:29:12.364Z,39.55
2018-08-12T18:31:42.154Z,38.86
2018-08-12T18:34:12.036Z,38.34
2018-08-12T18:36:41.965Z,38.39
2018-08-12T18:39:13.215Z,38.56
2018-08-12T18:41:42.937Z,40.88
2018-08-12T18:44:12.644Z,39.61
2018-08-12T18:46:42.637Z,39.07
2018-08-12T18:49:12.668Z,38.99
2018-08-12T18:51:42.501Z,40.10
2018-08-12T18:54:12.360Z,40.53
2018-08-12T18:56:42.190Z,41.44
2018-08-12T18:59:11.992Z,41.20
2018-08-12T19:01:41.879Z,41.40
2018-08-12T19:04:11.648Z,41.44
2018-08-12T19:06:41.349Z,40.10
2018-08-12T19:09:11.878Z,39.89
2018-08-12T19:11:41.549Z,41.42
2018-08-12T19:14:11.407Z,41.27
2018-08-12T19:16:41.196Z,41.66
2018-08-12T19:19:10.829Z,44.27
2018-08-12T19:21:40.853Z,44.70
2018-08-12T19:24:10.649Z,44.72
2018-08-12T19:26:40.285Z,45.00
2018-08-12T19:29:10.185Z,44.55
2018-08-12T19:31:40.337Z,45.06
2018-08-12T19:34:10.020Z,44.08
2018-08-12T19:36:39.824Z,44.93
2018-08-12T19:39:11.514Z,45.04
2018-08-12T19:41:41.303Z,43.96
2018-08-12T19:44:11.174Z,42.19
2018-08-12T19:46:40.839Z,41.78
2018-08-12T19:49:11.968Z,41.26
2018-08-12T19:51:41.671Z,42.40
2018-08-12T19:54:11.433Z,43.73
2018-08-12T19:56:41.160Z,43.79
2018-08-12T19:59:11.551Z,43.59
2018-08-12T20:01:41.209Z,41.88
2018-08-12T20:04:11.057Z,42.37
2018-08-12T20:06:41.847Z,42.27
2018-08-12T20:09:12.936Z,41.90
2018-08-12T20:11:42.672Z,42.33
2018-08-12T20:14:12.435Z,42.32
2018-08-12T20:16:42.164Z,42.30
2018-08-12T20:19:12.341Z,42.47
2018-08-12T20:21:42.058Z,42.26
2018-08-12T20:24:11.845Z,41.72
2018-08-12T20:26:41.725Z,43.46
2018-08-12T20:29:11.536Z,44.74
2018-08-12T20:31:41.324Z,43.89
2018-08-12T20:34:10.971Z,42.98
2018-08-12T20:36:40.909Z,43.81
2018-08-12T20:39:13.089Z,43.68
2018-08-12T20:41:43.840Z,44.47
2018-08-12T20:44:13.618Z,46.18
2018-08-12T20:46:43.491Z,45.31
2018-08-12T20:49:13.264Z,44.52
2018-08-12T20:51:43.133Z,43.52
2018-08-12T20:54:13.035Z,43.97
2018-08-12T20:56:42.825Z,43.19
2018-08-12T20:59:12.667Z,43.36
2018-08-12T21:01:42.334Z,44.44
2018-08-12T21:04:12.258Z,45.29
2018-08-12T21:06:41.973Z,45.14
2018-08-12T21:09:12.693Z,44.38
2018-08-12T21:11:42.537Z,44.17
2018-08-12T21:14:12.265Z,44.42
2018-08-12T21:16:42.085Z,44.34
2018-08-12T21:19:11.835Z,44.80
2018-08-12T21:21:41.704Z,44.12
2018-08-12T21:24:11.566Z,44.56
2018-08-12T21:26:41.519Z,44.82
2018-08-12T21:29:11.201Z,44.89
2018-08-12T21:31:40.964Z,44.92
2018-08-12T21:34:10.821Z,45.04
2018-08-12T21:36:40.605Z,45.28
2018-08-12T21:39:13.143Z,44.48
2018-08-12T21:41:43.484Z,44.72
2018-08-12T21:44:13.123Z,46.04
2018-08-12T21:46:43.261Z,45.15
2018-08-12T21:49:13.475Z,44.87
2018-08-12T21:51:43.220Z,44.85
2018-08-12T21:54:12.975Z,44.93
2018-08-12T21:56:42.747Z,44.83
2018-08-12T21:59:12.564Z,46.90
2018-08-12T22:01:42.444Z,46.36
2018-08-12T22:04:12.158Z,45.55
2018-08-12T22:06:41.913Z,44.98
2018-08-12T22:09:12.322Z,44.89
2018-08-12T22:11:42.112Z,44.38
2018-08-12T22:14:11.860Z,44.99
2018-08-12T22:16:41.657Z,44.76
2018-08-12T22:19:11.436Z,44.49
2018-08-12T22:21:41.159Z,45.32
2018-08-12T22:24:10.968Z,47.45
2018-08-12T22:26:41.012Z,49.03
2018-08-12T22:29:10.696Z,49.81
2018-08-12T22:31:40.377Z,49.59
2018-08-12T22:34:10.036Z,50.62
2018-08-12T22:36:39.644Z,49.56
2018-08-12T22:39:10.291Z,49.37
2018-08-12T22:41:40.023Z,47.61
2018-08-12T22:44:09.767Z,49.30
2018-08-12T22:46:39.614Z,48.77
2018-08-12T22:49:09.189Z,48.18
2018-08-12T22:51:38.965Z,48.80
2018-08-12T22:54:08.659Z,48.75
2018-08-12T22:56:38.467Z,48.12
2018-08-12T22:59:08.187Z,48.09
2018-08-12T23:01:38.661Z,48.08
2018-08-12T23:04:08.771Z,49.14
2018-08-12T23:06:38.597Z,49.89
2018-08-12T23:09:10.207Z,49.87
2018-08-12T23:11:40.415Z,48.58
2018-08-12T23:14:10.232Z,49.13
2018-08-12T23:16:50.652Z,48.50
2018-08-12T23:19:20.772Z,47.44
2018-08-12T23:21:50.558Z,48.70
2018-08-12T23:24:20.283Z,49.36
2018-08-12T23:26:49.865Z,49.63
2018-08-12T23:29:19.768Z,49.99
2018-08-12T23:31:49.529Z,48.80
2018-08-12T23:34:19.354Z,49.41
2018-08-12T23:36:48.991Z,49.08
2018-08-12T23:39:18.741Z,49.78
2018-08-12T23:41:48.702Z,49.21
2018-08-12T23:44:18.475Z,50.54
2018-08-12T23:46:48.242Z,49.71
2018-08-12T23:49:18.000Z,49.93
2018-08-12T23:51:47.708Z,51.23
2018-08-12T23:54:17.522Z,49.50
2018-08-12T23:56:47.563Z,49.51
2018-08-12T23:59:17.319Z,48.53
